createdAt,value
2023-04-10T00:06:13.292Z,97082.44
2023-04-10T00:13:01.555Z,97075.81
2023-04-10T00:24:36.138Z,97069.59
2023-04-10T00:27:05.573Z,97060.47
2023-04-10T00:33:53.864Z,97067.06
2023-04-10T00:36:23.205Z,97062.88
2023-04-10T00:38:53.946Z,97068.84
2023-04-10T00:41:29.700Z,97068.97
2023-04-10T00:43:59.399Z,97065.66
2023-04-10T00:46:29.737Z,97069.84
2023-04-10T00:48:59.536Z,97063.97
2023-04-10T00:51:28.634Z,97068.06
2023-04-10T00:53:58.330Z,97070.50
2023-04-10T00:56:32.440Z,97058.81
2023-04-10T00:59:05.154Z,97064.66
2023-04-10T01:01:35.836Z,97071.31
2023-04-10T01:04:05.331Z,97069.59
2023-04-10T01:06:44.178Z,97068.75
2023-04-10T01:09:18.187Z,97071.38
2023-04-10T01:11:54.042Z,97073.69
2023-04-10T01:14:30.106Z,97067.91
2023-04-10T01:17:02.461Z,97055.75
2023-04-10T01:19:47.642Z,97063.16
2023-04-10T01:22:17.242Z,97060.69
2023-04-10T01:29:06.432Z,97050.81
2023-04-10T01:35:51.859Z,97058.91
2023-04-10T01:38:22.248Z,97063.84
2023-04-10T01:45:06.022Z,97062.22
2023-04-10T01:47:35.644Z,97058.19
2023-04-10T01:53:33.515Z,97054.03
2023-04-10T02:00:16.410Z,97051.38
2023-04-10T02:02:46.324Z,97051.13
2023-04-10T02:05:17.626Z,97059.50
2023-04-10T02:07:50.400Z,97050.34
2023-04-10T02:10:24.632Z,97051.81
2023-04-10T02:12:57.087Z,97055.91
2023-04-10T02:15:30.035Z,97054.06
2023-04-10T02:18:00.418Z,97057.44
2023-04-10T02:20:29.487Z,97050.75
2023-04-10T02:23:00.136Z,97043.13
2023-04-10T02:25:29.210Z,97048.13
2023-04-10T02:27:58.409Z,97051.25
2023-04-10T02:30:29.737Z,97043.59
2023-04-10T02:32:58.960Z,97051.81
2023-04-10T02:35:29.587Z,97052.16
2023-04-10T02:42:24.511Z,97043.72
2023-04-10T02:44:53.700Z,97038.66
2023-04-10T02:51:42.894Z,97038.69
2023-04-10T02:54:12.094Z,97046.28
2023-04-10T03:00:59.128Z,97039.56
2023-04-10T03:03:30.367Z,97043.16
2023-04-10T03:06:00.104Z,97040.69
2023-04-10T03:08:31.542Z,97046.50
2023-04-10T03:11:00.826Z,97048.03
2023-04-10T03:13:29.920Z,97045.44
2023-04-10T03:15:59.269Z,97048.19
2023-04-10T03:18:28.624Z,97041.75
2023-04-10T03:20:58.128Z,97040.81
2023-04-10T03:27:46.496Z,97042.75
2023-04-10T03:30:18.036Z,97044.09
2023-04-10T03:37:05.189Z,97050.84
2023-04-10T03:39:36.246Z,97046.88
2023-04-10T03:46:38.172Z,97045.16
2023-04-10T03:49:07.645Z,97050.22
2023-04-10T03:51:37.117Z,97046.81
2023-04-10T03:54:06.125Z,97051.50
2023-04-10T03:56:39.109Z,97050.50
2023-04-10T03:59:08.099Z,97048.66
2023-04-10T04:01:39.771Z,97050.22
2023-04-10T04:04:09.060Z,97046.81
2023-04-10T04:06:38.441Z,97045.28
2023-04-10T04:09:07.846Z,97050.50
2023-04-10T04:11:38.987Z,97062.38
2023-04-10T04:14:08.184Z,97066.34
2023-04-10T04:16:38.833Z,97059.75
2023-04-10T04:19:08.418Z,97067.31
2023-04-10T04:21:37.819Z,97042.75
2023-04-10T04:28:19.645Z,97059.13
2023-04-10T04:30:49.669Z,97062.63
2023-04-10T04:37:38.750Z,97062.44
2023-04-10T04:40:08.655Z,97068.88
2023-04-10T04:42:37.648Z,97070.47
2023-04-10T04:45:07.872Z,97062.91
2023-04-10T04:47:37.214Z,97073.50
2023-04-10T04:50:06.979Z,97064.72
2023-04-10T04:52:36.688Z,97069.66
2023-04-10T04:55:08.969Z,97071.25
2023-04-10T04:57:38.052Z,97073.50
2023-04-10T05:00:08.677Z,97072.84
2023-04-10T05:02:38.099Z,97081.94
2023-04-10T05:09:25.448Z,97083.75
2023-04-10T05:11:56.255Z,97081.50
2023-04-10T05:23:09.844Z,97081.69
2023-04-10T05:25:38.936Z,97078.72
2023-04-10T05:28:09.360Z,97084.78
2023-04-10T05:30:38.560Z,97073.84
2023-04-10T05:33:07.546Z,97068.34
2023-04-10T05:39:43.009Z,97068.38
2023-04-10T05:42:13.650Z,97069.31
2023-04-10T05:49:03.371Z,97083.59
2023-04-10T05:51:32.547Z,97103.09
2023-04-10T05:54:01.597Z,97115.81
2023-04-10T05:56:30.733Z,97116.41
2023-04-10T05:58:59.725Z,97120.06
2023-04-10T06:01:28.739Z,97117.00
2023-04-10T06:03:58.281Z,97123.22
2023-04-10T06:06:30.096Z,97124.03
2023-04-10T06:08:59.295Z,97125.75
2023-04-10T06:11:29.090Z,97127.59
2023-04-10T06:13:58.174Z,97131.91
2023-04-10T06:16:27.649Z,97134.47
2023-04-10T06:19:01.372Z,97132.41
2023-04-10T06:21:33.759Z,97129.63
2023-04-10T06:24:02.751Z,97134.41
2023-04-10T06:26:31.844Z,97138.22
2023-04-10T06:29:00.815Z,97139.97
2023-04-10T06:31:30.128Z,97133.56
2023-04-10T06:34:00.463Z,97130.09
2023-04-10T06:36:35.390Z,97119.06
2023-04-10T06:39:04.712Z,97130.94
2023-04-10T06:45:51.421Z,97131.91
2023-04-10T06:48:20.517Z,97138.09
2023-04-10T06:55:03.041Z,97136.03
2023-04-10T06:57:32.988Z,97144.94
2023-04-10T07:03:14.289Z,97140.66
2023-04-10T07:10:03.760Z,97141.19
2023-04-10T07:12:32.956Z,97138.72
2023-04-10T07:15:02.349Z,97134.00
2023-04-10T07:17:31.573Z,97137.22
2023-04-10T07:20:01.067Z,97137.16
2023-04-10T07:22:30.249Z,97135.38
2023-04-10T07:24:59.966Z,97145.16
2023-04-10T07:31:48.995Z,97144.09
2023-04-10T07:34:18.243Z,97140.19
2023-04-10T07:41:05.894Z,97153.22
2023-04-10T07:43:35.092Z,97152.31
2023-04-10T07:50:24.383Z,97139.66
2023-04-10T07:52:53.690Z,97153.00
2023-04-10T07:55:23.082Z,97151.72
2023-04-10T07:57:52.690Z,97142.59
2023-04-10T08:00:21.992Z,97143.50
2023-04-10T08:07:06.506Z,97144.97
2023-04-10T08:09:36.200Z,97135.88
2023-04-10T08:16:17.721Z,97139.63
2023-04-10T08:18:47.397Z,97133.53
2023-04-10T08:25:43.860Z,97129.22
2023-04-10T08:32:27.081Z,97130.19
2023-04-10T08:34:56.399Z,97129.06
2023-04-10T08:41:45.897Z,97121.72
2023-04-10T08:44:14.996Z,97130.22
2023-04-10T08:51:03.360Z,97123.63
2023-04-10T08:53:33.683Z,97116.84
2023-04-10T08:56:05.937Z,97119.78
2023-04-10T08:58:37.715Z,97107.50
2023-04-10T09:01:07.314Z,97118.19
2023-04-10T09:03:36.742Z,97119.28
2023-04-10T09:06:07.342Z,97114.09
2023-04-10T09:08:36.849Z,97109.44
2023-04-10T09:11:08.221Z,97107.50
2023-04-10T09:13:40.476Z,97107.88
2023-04-10T09:16:10.523Z,97100.91
2023-04-10T09:18:50.325Z,97099.31
2023-04-10T09:21:21.163Z,97082.00
2023-04-10T09:23:51.279Z,97093.94
2023-04-10T09:26:28.055Z,97103.41
2023-04-10T09:29:04.655Z,97100.97
2023-04-10T09:35:48.792Z,97085.06
2023-04-10T09:42:44.748Z,97078.56
2023-04-10T09:45:15.369Z,97081.16
2023-04-10T09:51:59.951Z,97071.94
2023-04-10T09:54:38.965Z,97073.81
2023-04-10T10:01:16.085Z,97062.13
2023-04-10T10:08:10.804Z,97055.34
2023-04-10T10:10:43.075Z,97058.25
2023-04-10T10:17:29.939Z,97049.38
2023-04-10T10:20:03.422Z,97052.03
2023-04-10T10:26:52.904Z,97037.38
2023-04-10T10:33:49.978Z,97029.06
2023-04-10T10:36:19.705Z,97020.63
2023-04-10T10:43:14.607Z,97018.69
2023-04-10T10:45:51.180Z,97023.91
2023-04-10T10:52:45.196Z,97024.31
2023-04-10T10:55:38.856Z,97028.53
2023-04-10T11:02:27.683Z,97014.47
2023-04-10T11:04:56.835Z,97019.66
2023-04-10T11:08:04.021Z,97013.63
2023-04-10T11:11:05.384Z,97003.91
2023-04-10T11:17:56.445Z,97006.41
2023-04-10T11:25:02.840Z,96989.84
2023-04-10T11:27:49.049Z,96987.28
2023-04-10T11:34:36.824Z,96977.16
2023-04-10T11:37:07.573Z,96977.63
2023-04-10T11:43:56.865Z,96966.47
2023-04-10T11:46:26.423Z,96963.22
2023-04-10T11:53:21.916Z,96954.59
2023-04-10T12:00:26.149Z,96947.16
2023-04-10T12:02:55.700Z,96948.09
2023-04-10T12:09:44.024Z,96937.91
2023-04-10T12:12:13.626Z,96932.56
2023-04-10T12:19:04.250Z,96927.91
2023-04-10T12:21:37.233Z,96919.78
2023-04-10T12:24:06.743Z,96934.03
2023-04-10T12:26:35.846Z,96923.06
2023-04-10T12:29:06.666Z,96921.53
2023-04-10T12:31:37.387Z,96910.06
2023-04-10T12:34:09.946Z,96921.22
2023-04-10T12:36:40.610Z,96918.69
2023-04-10T12:39:24.158Z,96907.41
2023-04-10T12:41:53.241Z,96911.22
2023-04-10T12:44:22.638Z,96903.31
2023-04-10T12:46:52.152Z,96904.47
2023-04-10T12:49:25.851Z,96902.94
2023-04-10T12:51:55.046Z,96895.31
2023-04-10T12:54:31.532Z,96892.22
2023-04-10T12:57:01.229Z,96888.22
2023-04-10T12:59:31.111Z,96893.66
2023-04-10T13:02:00.552Z,96895.50
2023-04-10T13:04:31.990Z,96892.22
2023-04-10T13:07:01.606Z,96886.47
2023-04-10T13:09:30.676Z,96891.47
2023-04-10T13:12:00.098Z,96886.63
2023-04-10T13:14:29.173Z,96891.22
2023-04-10T13:16:58.781Z,96879.41
2023-04-10T13:19:28.080Z,96876.28
2023-04-10T13:26:11.525Z,96875.78
2023-04-10T13:28:40.833Z,96878.25
2023-04-10T13:35:22.232Z,96875.97
2023-04-10T13:37:54.410Z,96873.53
2023-04-10T13:43:26.795Z,96862.28
2023-04-10T13:50:14.354Z,96838.19
2023-04-10T13:56:56.573Z,96837.78
2023-04-10T13:59:27.495Z,96834.44
2023-04-10T14:06:21.215Z,96828.81
2023-04-10T14:08:50.821Z,96822.16
2023-04-10T14:11:19.909Z,96814.50
2023-04-10T14:13:50.227Z,96812.88
2023-04-10T14:16:20.815Z,96824.34
2023-04-10T14:18:50.256Z,96813.03
2023-04-10T14:21:20.699Z,96819.88
2023-04-10T14:23:50.274Z,96819.06
2023-04-10T14:26:19.592Z,96816.94
2023-04-10T14:28:48.883Z,96814.75
2023-04-10T14:31:18.103Z,96809.84
2023-04-10T14:33:49.122Z,96814.16
2023-04-10T14:36:18.441Z,96813.53
2023-04-10T14:38:47.821Z,96799.06
2023-04-10T14:41:17.016Z,96801.09
2023-04-10T14:43:46.235Z,96796.66
2023-04-10T14:46:15.408Z,96790.13
2023-04-10T14:48:44.644Z,96792.56
2023-04-10T14:51:15.249Z,96785.06
2023-04-10T14:53:45.973Z,96772.56
2023-04-10T14:56:15.695Z,96777.56
2023-04-10T14:58:45.695Z,96775.56
2023-04-10T15:01:20.329Z,96773.22
2023-04-10T15:08:03.569Z,96753.97
2023-04-10T15:10:32.868Z,96750.94
2023-04-10T15:17:14.857Z,96741.53
2023-04-10T15:19:45.714Z,96739.63
2023-04-10T15:26:35.320Z,96734.47
2023-04-10T15:29:04.317Z,96739.66
2023-04-10T15:31:33.618Z,96736.72
2023-04-10T15:38:16.053Z,96727.22
2023-04-10T15:40:45.473Z,96719.22
2023-04-10T15:47:35.354Z,96710.50
2023-04-10T15:50:05.068Z,96717.53
2023-04-10T15:56:53.637Z,96714.31
2023-04-10T16:03:37.369Z,96700.06
2023-04-10T16:06:07.953Z,96697.63
2023-04-10T16:12:49.644Z,96700.91
2023-04-10T16:15:19.046Z,96699.75
2023-04-10T16:22:16.324Z,96685.97
2023-04-10T16:29:09.417Z,96698.19
2023-04-10T16:31:38.781Z,96689.50
2023-04-10T16:38:21.333Z,96688.56
2023-04-10T16:40:50.836Z,96686.78
2023-04-10T16:47:39.139Z,96684.38
2023-04-10T16:54:21.266Z,96669.38
2023-04-10T16:56:50.927Z,96666.78
2023-04-10T17:03:38.718Z,96663.63
2023-04-10T17:06:07.992Z,96653.41
2023-04-10T17:12:10.632Z,96658.78
2023-04-10T17:18:51.692Z,96652.72
2023-04-10T17:21:20.889Z,96646.59
2023-04-10T17:26:51.850Z,96650.91
2023-04-10T17:33:28.130Z,96640.19
2023-04-10T17:40:21.533Z,96642.88
2023-04-10T17:42:50.909Z,96647.84
2023-04-10T17:49:34.584Z,96633.22
2023-04-10T17:52:03.984Z,96633.28
2023-04-10T17:58:51.873Z,96640.25
2023-04-10T18:01:26.396Z,96629.75
2023-04-10T18:03:55.752Z,96631.00
2023-04-10T18:06:26.697Z,96627.91
2023-04-10T18:08:56.382Z,96636.97
2023-04-10T18:15:44.761Z,96635.88
2023-04-10T18:18:14.248Z,96632.34
2023-04-10T18:29:47.840Z,96630.13
2023-04-10T18:32:20.008Z,96619.84
2023-04-10T18:34:50.536Z,96635.22
2023-04-10T18:37:26.588Z,96628.94
2023-04-10T18:39:58.754Z,96628.69
2023-04-10T18:42:55.404Z,96636.34
2023-04-10T18:49:31.996Z,96634.63
2023-04-10T18:56:19.442Z,96641.22
2023-04-10T18:58:50.323Z,96634.63
2023-04-10T19:05:33.827Z,96630.03
2023-04-10T19:08:04.518Z,96634.28
2023-04-10T19:14:52.524Z,96634.09
2023-04-10T19:21:35.468Z,96645.91
2023-04-10T19:24:04.771Z,96642.09
2023-04-10T19:30:45.792Z,96638.72
2023-04-10T19:33:14.848Z,96635.72
2023-04-10T19:35:44.366Z,96632.13
2023-04-10T19:38:15.803Z,96628.91
2023-04-10T19:40:48.703Z,96633.31
2023-04-10T19:43:18.127Z,96628.22
2023-04-10T19:45:47.081Z,96622.03
2023-04-10T19:48:17.898Z,96619.81
2023-04-10T19:50:47.007Z,96605.50
2023-04-10T19:53:17.841Z,96614.75
2023-04-10T19:55:47.047Z,96614.91
2023-04-10T19:58:35.717Z,96615.09
2023-04-10T20:04:13.156Z,96600.25
2023-04-10T20:11:02.524Z,96598.72
2023-04-10T20:13:31.484Z,96596.44
2023-04-10T20:16:00.976Z,96586.81
2023-04-10T20:18:30.187Z,96597.66
2023-04-10T20:20:59.280Z,96592.59
2023-04-10T20:23:30.024Z,96592.81
2023-04-10T20:25:59.307Z,96599.66
2023-04-10T20:32:42.573Z,96593.22
2023-04-10T20:35:12.484Z,96585.44
2023-04-10T20:41:55.106Z,96581.09
2023-04-10T20:44:25.019Z,96584.19
2023-04-10T20:51:08.063Z,96576.63
2023-04-10T20:57:56.234Z,96587.41
2023-04-10T21:00:25.876Z,96584.19
2023-04-10T21:07:15.136Z,96568.13
2023-04-10T21:09:44.451Z,96564.94
2023-04-10T21:16:32.636Z,96561.22
2023-04-10T21:23:10.317Z,96546.84
2023-04-10T21:25:40.845Z,96544.38
2023-04-10T21:32:28.938Z,96539.66
2023-04-10T21:34:58.005Z,96544.00
2023-04-10T21:40:34.348Z,96536.72
2023-04-10T21:47:23.990Z,96523.91
2023-04-10T21:49:52.961Z,96515.75
2023-04-10T21:52:22.275Z,96514.31
2023-04-10T21:54:51.265Z,96506.31
2023-04-10T21:57:21.896Z,96505.53
2023-04-10T21:59:51.301Z,96497.75
2023-04-10T22:02:20.207Z,96497.22
2023-04-10T22:04:54.599Z,96506.19
2023-04-10T22:07:23.902Z,96491.03
2023-04-10T22:09:53.112Z,96495.22
2023-04-10T22:12:23.628Z,96493.03
2023-04-10T22:19:10.960Z,96492.03
2023-04-10T22:21:41.594Z,96489.84
2023-04-10T22:24:11.129Z,96504.69
2023-04-10T22:26:42.270Z,96498.72
2023-04-10T22:33:33.898Z,96503.03
2023-04-10T22:36:03.334Z,96501.38
2023-04-10T22:42:52.287Z,96483.03
2023-04-10T22:45:21.994Z,96474.88
2023-04-10T22:47:51.193Z,96469.59
2023-04-10T22:50:22.419Z,96467.94
2023-04-10T22:52:51.428Z,96473.03
2023-04-10T22:55:21.041Z,96476.19
2023-04-10T22:57:50.332Z,96468.22
2023-04-10T23:00:19.939Z,96470.22
2023-04-10T23:02:49.238Z,96469.59
2023-04-10T23:05:18.640Z,96460.31
2023-04-10T23:07:49.268Z,96458.75
2023-04-10T23:14:31.170Z,96454.38
2023-04-10T23:17:00.697Z,96444.59
2023-04-10T23:28:03.831Z,96407.03
2023-04-10T23:34:52.413Z,96412.97
2023-04-10T23:37:22.336Z,96414.59
2023-04-10T23:44:11.409Z,96407.03
2023-04-10T23:46:40.941Z,96397.19
2023-04-10T23:53:29.182Z,96385.16
